createdAt,value
2018-05-09T00:00:52.122Z,101101.58
2018-05-09T00:03:18.244Z,101099.44
2018-05-09T00:05:44.434Z,101101.20
2018-05-09T00:08:10.569Z,101097.17
2018-05-09T00:10:36.698Z,101099.87
2018-05-09T00:13:02.864Z,101095.95
2018-05-09T00:15:29.149Z,101101.32
2018-05-09T00:17:55.290Z,101094.81
2018-05-09T00:20:21.433Z,101097.01
2018-05-09T00:22:48.085Z,101101.75
2018-05-09T00:25:14.214Z,101096.02
2018-05-09T00:27:40.394Z,101094.70
2018-05-09T00:30:06.571Z,101100.55
2018-05-09T00:32:32.865Z,101094.11
2018-05-09T00:34:59.010Z,101102.23
2018-05-09T00:37:25.140Z,101104.05
2018-05-09T00:39:51.354Z,101106.33
2018-05-09T00:42:17.485Z,101099.27
2018-05-09T00:44:43.628Z,101098.77
2018-05-09T00:47:09.794Z,101089.44
2018-05-09T00:49:35.945Z,101091.18
2018-05-09T00:52:02.226Z,101087.59
2018-05-09T00:54:32.291Z,101092.94
2018-05-09T00:56:58.447Z,101094.25
2018-05-09T00:59:24.614Z,101088.11
2018-05-09T01:01:50.754Z,101085.52
2018-05-09T01:04:16.920Z,101091.64
2018-05-09T01:06:43.063Z,101087.80
2018-05-09T01:09:09.225Z,101090.87
2018-05-09T01:11:35.360Z,101087.97
2018-05-09T01:14:01.528Z,101078.83
2018-05-09T01:16:27.708Z,101084.66
2018-05-09T01:18:53.841Z,101081.25
2018-05-09T01:21:20.029Z,101081.75
2018-05-09T01:23:46.164Z,101078.73
2018-05-09T01:26:12.331Z,101077.95
2018-05-09T01:28:38.654Z,101068.36
2018-05-09T01:31:05.137Z,101066.16
2018-05-09T01:33:31.269Z,101074.59
2018-05-09T01:35:57.798Z,101073.77
2018-05-09T01:38:23.933Z,101077.80
2018-05-09T01:40:50.056Z,101073.44
2018-05-09T01:43:16.720Z,101073.94
2018-05-09T01:45:42.897Z,101071.40
2018-05-09T01:48:09.031Z,101070.09
2018-05-09T01:50:35.318Z,101067.55
2018-05-09T01:53:01.499Z,101065.41
2018-05-09T01:55:27.635Z,101061.55
2018-05-09T01:57:53.792Z,101066.90
2018-05-09T02:00:19.949Z,101059.84
2018-05-09T02:02:46.103Z,101059.45
2018-05-09T02:05:12.224Z,101054.66
2018-05-09T02:07:38.394Z,101055.55
2018-05-09T02:10:04.527Z,101054.71
2018-05-09T02:12:30.689Z,101056.53
2018-05-09T02:14:57.139Z,101056.53
2018-05-09T02:17:23.305Z,101053.23
2018-05-09T02:19:49.440Z,101056.37
2018-05-09T02:22:15.581Z,101057.53
2018-05-09T02:24:41.848Z,101053.51
2018-05-09T02:27:08.004Z,101056.98
2018-05-09T02:29:34.166Z,101050.91
2018-05-09T02:32:00.339Z,101049.16
2018-05-09T02:34:26.859Z,101045.69
2018-05-09T02:36:53.302Z,101043.14
2018-05-09T02:39:19.434Z,101044.97
2018-05-09T02:41:45.622Z,101042.38
2018-05-09T02:44:12.083Z,101050.71
2018-05-09T02:46:38.250Z,101051.25
2018-05-09T02:49:04.741Z,101052.19
2018-05-09T02:51:30.936Z,101048.72
2018-05-09T02:53:57.327Z,101050.05
2018-05-09T02:56:23.465Z,101048.34
2018-05-09T02:58:49.633Z,101050.09
2018-05-09T03:01:15.771Z,101050.53
2018-05-09T03:03:41.934Z,101051.52
2018-05-09T03:06:08.065Z,101050.75
2018-05-09T03:08:34.712Z,101048.13
2018-05-09T03:11:00.845Z,101055.23
2018-05-09T03:13:26.981Z,101050.43
2018-05-09T03:15:53.151Z,101055.75
2018-05-09T03:18:19.282Z,101058.00
2018-05-09T03:20:45.421Z,101058.93
2018-05-09T03:23:11.805Z,101053.66
2018-05-09T03:25:37.941Z,101049.78
2018-05-09T03:28:04.138Z,101050.27
2018-05-09T03:30:30.729Z,101052.93
2018-05-09T03:32:56.886Z,101050.39
2018-05-09T03:35:23.007Z,101052.70
2018-05-09T03:37:49.268Z,101053.25
2018-05-09T03:40:15.541Z,101052.52
2018-05-09T03:42:41.679Z,101053.97
2018-05-09T03:45:07.845Z,101052.80
2018-05-09T03:47:34.014Z,101060.09
2018-05-09T03:50:00.445Z,101059.03
2018-05-09T03:52:26.875Z,101053.63
2018-05-09T03:54:53.213Z,101052.66
2018-05-09T03:57:19.359Z,101051.83
2018-05-09T03:59:45.485Z,101055.73
2018-05-09T04:02:24.071Z,101058.77
2018-05-09T04:05:02.570Z,101060.91
2018-05-09T04:07:41.106Z,101062.62
2018-05-09T04:10:07.241Z,101063.84
2018-05-09T04:12:33.369Z,101061.30
2018-05-09T04:14:59.614Z,101065.31
2018-05-09T04:17:25.767Z,101057.94
2018-05-09T04:19:51.913Z,101058.09
2018-05-09T04:22:18.102Z,101060.31
2018-05-09T04:24:44.298Z,101062.45
2018-05-09T04:27:10.977Z,101060.15
2018-05-09T04:29:37.118Z,101062.45
2018-05-09T04:32:03.696Z,101061.90
2018-05-09T04:34:29.895Z,101061.08
2018-05-09T04:36:56.021Z,101063.83
2018-05-09T04:39:22.215Z,101064.33
2018-05-09T04:41:48.542Z,101059.58
2018-05-09T04:44:14.669Z,101068.02
2018-05-09T04:46:40.802Z,101068.45
2018-05-09T04:49:07.087Z,101067.89
2018-05-09T04:51:33.218Z,101064.16
2018-05-09T04:53:59.365Z,101052.71
2018-05-09T04:56:25.577Z,101054.30
2018-05-09T04:58:51.717Z,101049.28
2018-05-09T05:01:17.852Z,101050.00
2018-05-09T05:03:44.870Z,101051.09
2018-05-09T05:06:11.000Z,101060.19
2018-05-09T05:08:37.199Z,101056.20
2018-05-09T05:11:03.334Z,101064.14
2018-05-09T05:13:29.469Z,101062.45
2018-05-09T05:15:55.668Z,101073.45
2018-05-09T05:18:21.808Z,101067.57
2018-05-09T05:20:47.948Z,101073.24
2018-05-09T05:23:14.238Z,101074.02
2018-05-09T05:25:40.421Z,101068.39
2018-05-09T05:28:06.600Z,101070.48
2018-05-09T05:30:32.877Z,101073.02
2018-05-09T05:32:59.093Z,101071.30
2018-05-09T05:35:25.238Z,101074.01
2018-05-09T05:37:51.378Z,101068.33
2018-05-09T05:40:17.534Z,101067.83
2018-05-09T05:42:43.708Z,101069.92
2018-05-09T05:45:09.975Z,101073.84
2018-05-09T05:47:36.189Z,101072.36
2018-05-09T05:50:02.342Z,101071.47
2018-05-09T05:52:28.473Z,101071.59
2018-05-09T05:54:54.657Z,101068.06
2018-05-09T05:57:20.804Z,101068.88
2018-05-09T05:59:46.964Z,101062.09
2018-05-09T06:02:13.456Z,101063.20
2018-05-09T06:04:39.855Z,101063.09
2018-05-09T06:07:05.999Z,101062.05
2018-05-09T06:09:32.213Z,101064.51
2018-05-09T06:11:58.344Z,101066.98
2018-05-09T06:14:24.486Z,101075.14
2018-05-09T06:16:50.773Z,101069.02
2018-05-09T06:19:16.922Z,101069.36
2018-05-09T06:21:43.064Z,101070.66
2018-05-09T06:24:09.331Z,101053.38
2018-05-09T06:26:35.494Z,101061.14
2018-05-09T06:29:01.629Z,101059.75
2018-05-09T06:31:28.206Z,101067.25
2018-05-09T06:33:54.346Z,101067.20
2018-05-09T06:36:20.823Z,101078.71
2018-05-09T06:38:47.024Z,101073.55
2018-05-09T06:41:13.163Z,101068.85
2018-05-09T06:43:39.343Z,101071.02
2018-05-09T06:46:05.523Z,101075.05
2018-05-09T06:48:31.699Z,101075.81
2018-05-09T06:50:57.909Z,101076.31
2018-05-09T06:53:24.163Z,101079.20
2018-05-09T06:55:50.409Z,101079.94
2018-05-09T06:58:16.564Z,101074.65
2018-05-09T07:00:43.111Z,101074.70
2018-05-09T07:03:09.343Z,101068.53
2018-05-09T07:05:35.539Z,101070.84
2018-05-09T07:08:01.858Z,101073.82
2018-05-09T07:10:28.015Z,101078.55
2018-05-09T07:12:54.143Z,101075.84
2018-05-09T07:15:21.620Z,101077.42
2018-05-09T07:17:47.753Z,101079.09
2018-05-09T07:20:13.932Z,101078.64
2018-05-09T07:22:40.514Z,101076.05
2018-05-09T07:25:06.657Z,101079.47
2018-05-09T07:27:32.827Z,101074.50
2018-05-09T07:29:59.242Z,101077.08
2018-05-09T07:32:25.648Z,101072.62
2018-05-09T07:34:51.835Z,101082.33
2018-05-09T07:37:18.261Z,101072.28
2018-05-09T07:39:44.396Z,101073.12
2018-05-09T07:42:10.703Z,101077.89
2018-05-09T07:44:36.808Z,101083.19
2018-05-09T07:47:02.950Z,101085.73
2018-05-09T07:49:29.577Z,101077.70
2018-05-09T07:51:55.768Z,101077.20
2018-05-09T07:54:21.922Z,101081.06
2018-05-09T07:56:48.223Z,101080.13
2018-05-09T07:59:14.474Z,101079.64
2018-05-09T08:01:40.612Z,101089.33
2018-05-09T08:04:06.808Z,101078.25
2018-05-09T08:06:32.969Z,101078.23
2018-05-09T08:08:59.170Z,101072.89
2018-05-09T08:11:25.347Z,101075.03
2018-05-09T08:13:51.506Z,101078.95
2018-05-09T08:16:17.696Z,101074.48
2018-05-09T08:18:43.842Z,101067.42
2018-05-09T08:21:10.027Z,101067.42
2018-05-09T08:23:36.200Z,101074.03
2018-05-09T08:26:02.479Z,101071.78
2018-05-09T08:28:28.649Z,101078.34
2018-05-09T08:30:55.086Z,101072.20
2018-05-09T08:33:21.315Z,101071.16
2018-05-09T08:35:47.483Z,101071.55
2018-05-09T08:38:13.656Z,101072.35
2018-05-09T08:40:39.891Z,101068.81
2018-05-09T08:43:06.041Z,101069.20
2018-05-09T08:45:32.206Z,101068.59
2018-05-09T08:47:58.350Z,101064.10
2018-05-09T08:50:24.905Z,101063.18
2018-05-09T08:52:51.046Z,101064.37
2018-05-09T08:55:17.321Z,101061.72
2018-05-09T08:57:43.508Z,101060.72
2018-05-09T09:00:09.778Z,101060.70
2018-05-09T09:02:35.923Z,101059.66
2018-05-09T09:05:02.376Z,101062.23
2018-05-09T09:07:28.579Z,101064.39
2018-05-09T09:09:55.092Z,101061.63
2018-05-09T09:12:21.233Z,101057.64
2018-05-09T09:14:47.382Z,101060.22
2018-05-09T09:17:13.598Z,101067.73
2018-05-09T09:19:39.823Z,101060.94
2018-05-09T09:22:06.016Z,101064.85
2018-05-09T09:24:32.145Z,101058.65
2018-05-09T09:26:58.339Z,101059.47
2018-05-09T09:29:24.503Z,101054.57
2018-05-09T09:31:50.646Z,101055.45
2018-05-09T09:34:16.855Z,101038.98
2018-05-09T09:36:43.002Z,101045.42
2018-05-09T09:39:09.232Z,101044.98
2018-05-09T09:41:35.495Z,101041.31
2018-05-09T09:44:01.574Z,101046.58
2018-05-09T09:46:27.747Z,101038.07
2018-05-09T09:48:54.045Z,101041.04
2018-05-09T09:51:20.318Z,101028.16
2018-05-09T09:53:46.476Z,101036.42
2018-05-09T09:56:12.635Z,101032.81
2018-05-09T09:58:38.824Z,101035.78
2018-05-09T10:01:04.969Z,101031.69
2018-05-09T10:03:31.202Z,101029.41
2018-05-09T10:05:57.437Z,101025.81
2018-05-09T10:08:24.034Z,101027.89
2018-05-09T10:10:50.269Z,101025.99
2018-05-09T10:13:16.406Z,101021.53
2018-05-09T10:15:42.903Z,101015.97
2018-05-09T10:18:09.797Z,101018.84
2018-05-09T10:20:35.942Z,101016.39
2018-05-09T10:23:02.150Z,101019.23
2018-05-09T10:25:28.326Z,101007.59
2018-05-09T10:27:54.608Z,101009.10
2018-05-09T10:30:20.766Z,101007.20
2018-05-09T10:32:47.094Z,101007.77
2018-05-09T10:35:13.414Z,101010.55
2018-05-09T10:37:39.714Z,101004.12
2018-05-09T10:40:05.877Z,101003.68
2018-05-09T10:42:32.092Z,100998.45
2018-05-09T10:45:05.080Z,100998.06
2018-05-09T10:47:35.938Z,101004.33
2018-05-09T10:50:02.330Z,100999.39
2018-05-09T10:52:28.697Z,100991.77
2018-05-09T10:54:55.137Z,100993.84
2018-05-09T10:57:21.352Z,100995.41
2018-05-09T10:59:47.538Z,100990.47
2018-05-09T11:02:13.678Z,100989.39
2018-05-09T11:04:40.283Z,100985.52
2018-05-09T11:07:06.472Z,100984.14
2018-05-09T11:09:32.621Z,100978.33
2018-05-09T11:11:58.833Z,100978.44
2018-05-09T11:14:25.212Z,100970.56
2018-05-09T11:16:51.360Z,100979.22
2018-05-09T11:19:17.554Z,100978.26
2018-05-09T11:21:44.314Z,100978.64
2018-05-09T11:24:10.818Z,100982.49
2018-05-09T11:26:38.658Z,100972.77
2018-05-09T11:29:04.816Z,100980.20
2018-05-09T11:31:31.100Z,100982.41
2018-05-09T11:33:57.258Z,100975.59
2018-05-09T11:36:23.770Z,100970.75
2018-05-09T11:38:49.940Z,100968.86
2018-05-09T11:41:16.434Z,100963.89
2018-05-09T11:43:43.079Z,100962.15
2018-05-09T11:46:09.237Z,100965.39
2018-05-09T11:48:35.390Z,100957.14
2018-05-09T11:51:01.584Z,100958.64
2018-05-09T11:53:27.739Z,100959.78
2018-05-09T11:55:53.873Z,100960.45
2018-05-09T11:58:20.055Z,100954.47
2018-05-09T12:00:46.215Z,100949.81
2018-05-09T12:03:12.390Z,100950.87
2018-05-09T12:05:38.554Z,100946.67
2018-05-09T12:08:04.727Z,100939.81
2018-05-09T12:10:31.290Z,100932.93
2018-05-09T12:12:57.402Z,100939.33
2018-05-09T12:15:23.553Z,100933.72
2018-05-09T12:17:49.695Z,100935.28
2018-05-09T12:20:15.866Z,100931.08
2018-05-09T12:22:42.008Z,100926.44
2018-05-09T12:25:08.179Z,100919.25
2018-05-09T12:27:34.342Z,100921.61
2018-05-09T12:30:00.518Z,100915.23
2018-05-09T12:32:26.653Z,100923.91
2018-05-09T12:34:52.982Z,100913.08
2018-05-09T12:37:19.278Z,100918.20
2018-05-09T12:39:45.418Z,100918.38
2018-05-09T12:42:11.830Z,100908.99
2018-05-09T12:44:38.510Z,100911.77
2018-05-09T12:47:04.658Z,100909.78
2018-05-09T12:49:30.798Z,100910.05
2018-05-09T12:51:57.254Z,100903.69
2018-05-09T12:54:23.400Z,100906.70
2018-05-09T12:56:49.610Z,100909.13
2018-05-09T12:59:15.756Z,100897.80
2018-05-09T13:01:41.903Z,100891.81
2018-05-09T13:04:08.094Z,100887.22
2018-05-09T13:06:34.237Z,100892.31
2018-05-09T13:09:00.745Z,100882.42
2018-05-09T13:11:26.893Z,100886.67
2018-05-09T13:13:53.048Z,100876.25
2018-05-09T13:16:19.533Z,100879.20
2018-05-09T13:18:45.700Z,100873.22
2018-05-09T13:21:12.196Z,100875.18
2018-05-09T13:23:38.680Z,100857.91
2018-05-09T13:26:04.834Z,100861.70
2018-05-09T13:28:30.982Z,100856.59
2018-05-09T13:30:57.159Z,100852.34
2018-05-09T13:33:23.647Z,100852.45
2018-05-09T13:35:49.874Z,100850.16
2018-05-09T13:38:16.027Z,100844.64
2018-05-09T13:40:42.184Z,100839.86
2018-05-09T13:43:08.379Z,100839.95
2018-05-09T13:45:34.804Z,100839.36
2018-05-09T13:48:00.988Z,100836.73
2018-05-09T13:50:27.279Z,100835.88
2018-05-09T13:52:54.799Z,100831.97
2018-05-09T13:55:21.057Z,100833.87
2018-05-09T13:57:47.481Z,100835.84
2018-05-09T14:00:13.685Z,100824.55
2018-05-09T14:02:39.848Z,100826.63
2018-05-09T14:05:06.041Z,100818.48
2018-05-09T14:07:32.191Z,100825.33
2018-05-09T14:09:58.492Z,100826.06
2018-05-09T14:12:24.613Z,100818.70
2018-05-09T14:14:50.778Z,100821.48
2018-05-09T14:17:17.192Z,100810.04
2018-05-09T14:19:43.370Z,100812.26
2018-05-09T14:22:09.944Z,100813.95
2018-05-09T14:24:36.101Z,100807.98
2018-05-09T14:27:02.245Z,100797.84
2018-05-09T14:29:28.430Z,100801.21
2018-05-09T14:31:54.573Z,100795.76
2018-05-09T14:34:20.822Z,100798.73
2018-05-09T14:36:47.023Z,100801.67
2018-05-09T14:39:13.480Z,100791.14
2018-05-09T14:41:39.790Z,100788.37
2018-05-09T14:44:05.956Z,100790.66
2018-05-09T14:46:32.125Z,100789.42
2018-05-09T14:48:58.311Z,100789.19
2018-05-09T14:51:24.541Z,100787.46
2018-05-09T14:53:50.807Z,100782.78
2018-05-09T14:56:17.178Z,100780.80
2018-05-09T14:58:43.326Z,100784.81
2018-05-09T15:01:09.494Z,100784.68
2018-05-09T15:03:35.809Z,100785.48
2018-05-09T15:06:02.218Z,100786.17
2018-05-09T15:08:28.654Z,100779.97
2018-05-09T15:10:55.089Z,100780.80
2018-05-09T15:13:21.258Z,100775.30
2018-05-09T15:15:47.543Z,100773.84
2018-05-09T15:18:13.689Z,100774.56
2018-05-09T15:20:39.853Z,100775.30
2018-05-09T15:23:06.069Z,100768.73
2018-05-09T15:25:32.241Z,100771.72
2018-05-09T15:27:58.667Z,100769.95
2018-05-09T15:30:24.851Z,100765.15
2018-05-09T15:32:51.052Z,100765.77
2018-05-09T15:35:17.221Z,100757.75
2018-05-09T15:37:43.406Z,100756.95
2018-05-09T15:40:09.609Z,100759.62
2018-05-09T15:42:35.818Z,100751.08
2018-05-09T15:45:02.014Z,100756.42
2018-05-09T15:47:28.155Z,100752.75
2018-05-09T15:49:54.332Z,100756.24
2018-05-09T15:52:20.586Z,100753.30
2018-05-09T15:54:46.745Z,100751.06
2018-05-09T15:57:12.926Z,100752.70
2018-05-09T15:59:39.119Z,100746.08
2018-05-09T16:02:05.321Z,100745.75
2018-05-09T16:04:31.489Z,100744.87
2018-05-09T16:06:57.642Z,100740.59
2018-05-09T16:09:23.877Z,100742.28
2018-05-09T16:11:50.986Z,100740.05
2018-05-09T16:14:17.137Z,100739.22
2018-05-09T16:16:43.314Z,100733.61
2018-05-09T16:19:09.457Z,100735.95
2018-05-09T16:21:35.801Z,100736.81
2018-05-09T16:24:01.965Z,100736.81
2018-05-09T16:26:28.150Z,100729.28
2018-05-09T16:28:54.687Z,100735.08
2018-05-09T16:31:20.835Z,100731.84
2018-05-09T16:33:46.981Z,100728.24
2018-05-09T16:36:13.203Z,100730.64
2018-05-09T16:38:39.351Z,100727.70
2018-05-09T16:41:05.773Z,100728.66
2018-05-09T16:43:31.909Z,100730.86
2018-05-09T16:45:58.227Z,100729.38
2018-05-09T16:48:24.384Z,100727.07
2018-05-09T16:50:50.852Z,100721.18
2018-05-09T16:53:17.032Z,100715.55
2018-05-09T16:55:43.199Z,100716.38
2018-05-09T16:58:09.430Z,100716.78
2018-05-09T17:00:35.819Z,100712.16
2018-05-09T17:03:02.005Z,100714.41
2018-05-09T17:05:28.409Z,100714.50
2018-05-09T17:07:54.522Z,100711.97
2018-05-09T17:10:20.687Z,100710.27
2018-05-09T17:12:46.885Z,100703.75
2018-05-09T17:15:13.100Z,100703.81
2018-05-09T17:17:39.292Z,100699.72
2018-05-09T17:20:05.443Z,100702.02
2018-05-09T17:22:31.741Z,100708.17
2018-05-09T17:24:57.908Z,100699.94
2018-05-09T17:27:24.196Z,100698.87
2018-05-09T17:29:50.383Z,100697.86
2018-05-09T17:32:16.525Z,100700.53
2018-05-09T17:34:42.710Z,100693.83
2018-05-09T17:37:08.868Z,100697.94
2018-05-09T17:39:35.052Z,100695.54
2018-05-09T17:42:01.362Z,100701.27
2018-05-09T17:44:27.528Z,100692.14
2018-05-09T17:46:53.699Z,100693.61
2018-05-09T17:49:19.980Z,100689.91
2018-05-09T17:51:46.479Z,100690.72
2018-05-09T17:54:12.623Z,100689.31
2018-05-09T17:56:38.810Z,100689.48
2018-05-09T17:59:05.098Z,100688.72
2018-05-09T18:01:31.289Z,100686.48
2018-05-09T18:03:57.503Z,100689.41
2018-05-09T18:06:23.734Z,100686.54
2018-05-09T18:08:49.878Z,100694.03
2018-05-09T18:11:16.095Z,100692.72
2018-05-09T18:13:42.391Z,100698.93
2018-05-09T18:16:08.646Z,100697.05
2018-05-09T18:18:34.797Z,100696.67
2018-05-09T18:21:01.075Z,100700.38
2018-05-09T18:23:27.242Z,100702.64
2018-05-09T18:25:53.510Z,100692.06
2018-05-09T18:28:19.962Z,100698.14
2018-05-09T18:30:46.116Z,100697.65
2018-05-09T18:33:12.303Z,100696.60
2018-05-09T18:35:38.573Z,100698.24
2018-05-09T18:38:04.733Z,100699.83
2018-05-09T18:40:31.251Z,100701.50
2018-05-09T18:42:57.457Z,100700.26
2018-05-09T18:45:23.636Z,100703.35
2018-05-09T18:47:49.837Z,100702.02
2018-05-09T18:50:15.993Z,100704.77
2018-05-09T18:52:42.132Z,100703.06
2018-05-09T18:55:08.430Z,100699.84
2018-05-09T18:57:34.574Z,100706.28
2018-05-09T19:00:01.043Z,100698.83
2018-05-09T19:02:27.500Z,100705.20
2018-05-09T19:04:53.666Z,100700.26
2018-05-09T19:07:20.114Z,100696.70
2018-05-09T19:09:46.316Z,100700.20
2018-05-09T19:12:12.731Z,100707.38
2018-05-09T19:14:38.890Z,100700.50
2018-05-09T19:17:05.030Z,100704.62
2018-05-09T19:19:31.206Z,100707.43
2018-05-09T19:21:57.362Z,100710.68
2018-05-09T19:24:23.533Z,100710.36
2018-05-09T19:26:49.681Z,100708.35
2018-05-09T19:29:15.958Z,100708.56
2018-05-09T19:31:42.093Z,100720.66
2018-05-09T19:34:08.245Z,100724.37
2018-05-09T19:36:34.449Z,100730.27
2018-05-09T19:39:00.636Z,100732.22
2018-05-09T19:41:26.873Z,100727.52
2018-05-09T19:43:53.216Z,100730.41
2018-05-09T19:46:19.743Z,100729.34
2018-05-09T19:48:45.941Z,100727.36
2018-05-09T19:51:12.125Z,100733.35
2018-05-09T19:53:38.633Z,100733.09
2018-05-09T19:56:04.792Z,100726.25
2018-05-09T19:58:30.930Z,100730.48
2018-05-09T20:00:57.103Z,100742.22
2018-05-09T20:03:23.233Z,100737.63
2018-05-09T20:05:49.405Z,100739.99
2018-05-09T20:08:15.579Z,100737.11
2018-05-09T20:10:41.726Z,100738.64
2018-05-09T20:13:08.216Z,100744.06
2018-05-09T20:15:34.344Z,100742.51
2018-05-09T20:18:00.522Z,100739.19
2018-05-09T20:20:27.105Z,100740.69
2018-05-09T20:22:53.305Z,100743.52
2018-05-09T20:25:19.416Z,100745.05
2018-05-09T20:27:45.590Z,100745.25
2018-05-09T20:30:17.886Z,100745.48
2018-05-09T20:32:44.055Z,100741.63
2018-05-09T20:35:10.242Z,100735.59
2018-05-09T20:37:36.533Z,100736.20
2018-05-09T20:40:02.712Z,100737.73
2018-05-09T20:42:28.851Z,100734.80
2018-05-09T20:44:55.375Z,100734.08
2018-05-09T20:47:21.514Z,100732.03
2018-05-09T20:49:47.650Z,100732.69
2018-05-09T20:52:13.828Z,100734.09
2018-05-09T20:54:39.979Z,100737.36
2018-05-09T20:57:06.264Z,100738.39
2018-05-09T20:59:32.422Z,100736.31
2018-05-09T21:01:58.557Z,100741.33
2018-05-09T21:04:24.799Z,100740.94
2018-05-09T21:06:51.279Z,100743.73
2018-05-09T21:09:17.517Z,100746.94
2018-05-09T21:11:49.812Z,100743.95
2018-05-09T21:14:16.088Z,100739.63
2018-05-09T21:16:42.233Z,100744.15
2018-05-09T21:19:08.375Z,100747.31
2018-05-09T21:21:34.546Z,100745.70
2018-05-09T21:24:00.690Z,100743.55
2018-05-09T21:26:26.818Z,100750.28
2018-05-09T21:28:53.305Z,100745.54
2018-05-09T21:31:19.432Z,100743.02
2018-05-09T21:33:45.593Z,100737.30
2018-05-09T21:36:11.769Z,100740.02
2018-05-09T21:38:37.984Z,100746.30
2018-05-09T21:41:04.397Z,100742.89
2018-05-09T21:43:30.537Z,100742.97
2018-05-09T21:45:56.705Z,100736.41
2018-05-09T21:48:22.840Z,100740.91
2018-05-09T21:50:49.114Z,100739.23
2018-05-09T21:53:15.246Z,100737.06
2018-05-09T21:55:41.374Z,100734.95
2018-05-09T21:58:07.545Z,100734.20
2018-05-09T22:00:33.685Z,100735.14
2018-05-09T22:03:00.218Z,100730.35
2018-05-09T22:05:26.353Z,100732.66
2018-05-09T22:07:52.499Z,100734.93
2018-05-09T22:10:18.770Z,100736.34
2018-05-09T22:12:44.912Z,100730.67
2018-05-09T22:15:11.288Z,100731.16
2018-05-09T22:17:38.002Z,100723.72
2018-05-09T22:20:04.138Z,100721.09
2018-05-09T22:22:30.282Z,100726.91
2018-05-09T22:24:56.601Z,100720.36
2018-05-09T22:27:22.765Z,100714.22
2018-05-09T22:29:48.904Z,100715.19
2018-05-09T22:32:15.074Z,100717.89
2018-05-09T22:34:41.226Z,100710.02
2018-05-09T22:37:07.473Z,100701.63
2018-05-09T22:39:33.984Z,100705.23
2018-05-09T22:42:00.346Z,100699.94
2018-05-09T22:44:26.505Z,100695.59
2018-05-09T22:46:52.690Z,100694.77
2018-05-09T22:49:18.829Z,100688.66
2018-05-09T22:51:45.015Z,100696.23
2018-05-09T22:54:11.152Z,100688.30
2018-05-09T22:56:37.349Z,100694.95
2018-05-09T22:59:03.719Z,100687.52
2018-05-09T23:01:29.866Z,100681.85
2018-05-09T23:03:56.131Z,100680.09
2018-05-09T23:06:22.268Z,100677.49
2018-05-09T23:08:48.400Z,100676.25
2018-05-09T23:11:14.619Z,100675.00
2018-05-09T23:13:40.753Z,100667.62
2018-05-09T23:16:06.890Z,100672.94
2018-05-09T23:18:33.072Z,100669.45
2018-05-09T23:20:59.577Z,100666.91
2018-05-09T23:23:25.716Z,100660.27
2018-05-09T23:25:51.845Z,100664.31
2018-05-09T23:28:18.242Z,100662.17
2018-05-09T23:30:44.365Z,100653.86
2018-05-09T23:33:10.574Z,100660.60
2018-05-09T23:35:36.705Z,100654.89
2018-05-09T23:38:02.849Z,100654.51
2018-05-09T23:40:29.142Z,100651.48
2018-05-09T23:42:55.316Z,100655.48
2018-05-09T23:45:21.474Z,100655.99
2018-05-09T23:47:47.614Z,100660.09
2018-05-09T23:50:13.814Z,100655.70
2018-05-09T23:52:39.955Z,100656.19
2018-05-09T23:55:06.095Z,100651.91
2018-05-09T23:57:32.262Z,100652.83
2018-05-09T23:59:58.389Z,100649.80
